createdAt,value
2019-01-15T00:03:05.607Z,0.84
2019-01-15T00:07:10.651Z,0.83
2019-01-15T00:11:15.748Z,0.83
2019-01-15T00:15:20.872Z,0.82
2019-01-15T00:19:25.933Z,0.86
2019-01-15T00:23:31.059Z,0.82
2019-01-15T00:27:36.135Z,0.89
2019-01-15T00:31:41.494Z,0.93
2019-01-15T00:35:47.351Z,0.98
2019-01-15T00:39:52.474Z,0.93
2019-01-15T00:43:57.713Z,0.88
2019-01-15T00:48:02.787Z,0.86
2019-01-15T00:52:07.834Z,0.87
2019-01-15T00:56:13.905Z,0.85
2019-01-15T01:00:23.168Z,0.86
2019-01-15T01:04:28.229Z,0.92
2019-01-15T01:08:33.467Z,0.87
2019-01-15T01:12:38.504Z,0.96
2019-01-15T01:16:43.559Z,0.98
2019-01-15T01:20:48.506Z,1.03
2019-01-15T01:24:53.564Z,1.04
2019-01-15T01:28:58.701Z,1.09
2019-01-15T01:33:03.711Z,1.04
2019-01-15T01:37:08.780Z,1.09
2019-01-15T01:41:13.816Z,1.05
2019-01-15T01:45:19.447Z,1.14
2019-01-15T01:49:24.565Z,1.18
2019-01-15T01:53:29.677Z,1.23
2019-01-15T01:57:34.758Z,1.23
2019-01-15T02:01:39.797Z,1.35
2019-01-15T02:05:44.911Z,1.47
2019-01-15T02:09:51.004Z,1.41
2019-01-15T02:13:56.038Z,1.46
2019-01-15T02:18:01.063Z,1.56
2019-01-15T02:22:06.205Z,1.69
2019-01-15T02:26:11.247Z,1.72
2019-01-15T02:30:21.470Z,1.81
2019-01-15T02:34:26.499Z,1.89
2019-01-15T02:38:31.505Z,1.93
2019-01-15T02:42:36.463Z,2.02
2019-01-15T02:46:41.415Z,2.10
2019-01-15T02:50:46.369Z,2.09
2019-01-15T02:54:51.394Z,2.07
2019-01-15T02:58:56.396Z,2.10
2019-01-15T03:03:01.413Z,2.15
2019-01-15T03:07:06.471Z,2.14
2019-01-15T03:11:11.456Z,2.13
2019-01-15T03:15:17.570Z,2.19
2019-01-15T03:19:22.525Z,2.16
2019-01-15T03:23:27.601Z,2.19
2019-01-15T03:27:32.637Z,2.30
2019-01-15T03:31:37.684Z,2.28
2019-01-15T03:35:42.805Z,2.21
2019-01-15T03:39:47.756Z,2.19
2019-01-15T03:43:52.757Z,2.23
2019-01-15T03:47:57.721Z,2.27
2019-01-15T03:52:02.743Z,2.20
2019-01-15T03:56:07.803Z,2.18
2019-01-15T04:00:20.987Z,2.19
2019-01-15T04:04:26.009Z,2.19
2019-01-15T04:08:31.078Z,2.17
2019-01-15T04:12:36.195Z,2.19
2019-01-15T04:16:41.250Z,2.23
2019-01-15T04:20:46.278Z,2.26
2019-01-15T04:24:51.529Z,2.27
2019-01-15T04:28:56.596Z,2.24
2019-01-15T04:33:01.944Z,2.24
2019-01-15T04:37:06.997Z,2.23
2019-01-15T04:41:12.086Z,2.29
2019-01-15T04:45:18.491Z,2.29
2019-01-15T04:49:23.533Z,2.33
2019-01-15T04:53:28.682Z,2.33
2019-01-15T04:57:33.772Z,2.25
2019-01-15T05:01:38.942Z,2.29
2019-01-15T05:05:44.095Z,2.29
2019-01-15T05:09:49.237Z,2.31
2019-01-15T05:13:55.357Z,2.31
2019-01-15T05:18:00.437Z,2.41
2019-01-15T05:22:05.525Z,2.50
2019-01-15T05:26:10.642Z,2.60
2019-01-15T05:30:18.427Z,2.61
2019-01-15T05:34:23.511Z,2.71
2019-01-15T05:38:28.560Z,2.75
2019-01-15T05:42:33.736Z,2.82
2019-01-15T05:46:38.866Z,2.94
2019-01-15T05:50:49.647Z,3.00
2019-01-15T05:54:54.831Z,3.07
2019-01-15T05:58:59.893Z,3.11
2019-01-15T06:03:05.107Z,3.12
2019-01-15T06:07:10.189Z,3.17
2019-01-15T06:11:15.235Z,3.15
2019-01-15T06:15:20.290Z,3.21
2019-01-15T06:19:25.347Z,3.13
2019-01-15T06:23:31.481Z,3.21
2019-01-15T06:27:36.529Z,3.33
2019-01-15T06:31:41.590Z,3.36
2019-01-15T06:35:46.962Z,3.42
2019-01-15T06:39:52.043Z,3.49
2019-01-15T06:43:57.106Z,3.50
2019-01-15T06:48:02.284Z,3.52
2019-01-15T06:52:07.377Z,3.61
2019-01-15T06:56:12.550Z,3.66
2019-01-15T07:00:22.741Z,3.69
2019-01-15T07:04:27.865Z,3.68
2019-01-15T07:08:33.288Z,3.73
2019-01-15T07:12:38.488Z,3.86
2019-01-15T07:16:43.565Z,3.84
2019-01-15T07:20:48.665Z,3.88
2019-01-15T07:24:53.760Z,3.86
2019-01-15T07:28:58.932Z,3.87
2019-01-15T07:33:04.169Z,3.85
2019-01-15T07:37:09.215Z,3.85
2019-01-15T07:41:14.286Z,3.86
2019-01-15T07:45:20.239Z,3.92
2019-01-15T07:49:25.318Z,4.02
2019-01-15T07:53:30.429Z,3.97
2019-01-15T07:57:35.526Z,4.00
2019-01-15T08:01:41.779Z,4.03
2019-01-15T08:05:46.943Z,4.04
2019-01-15T08:09:51.995Z,4.06
2019-01-15T08:13:57.091Z,4.07
2019-01-15T08:18:02.178Z,4.04
2019-01-15T08:22:07.329Z,4.01
2019-01-15T08:26:12.755Z,4.03
2019-01-15T08:30:22.861Z,4.06
2019-01-15T08:34:27.882Z,4.23
2019-01-15T08:38:32.917Z,4.31
2019-01-15T08:42:38.003Z,4.34
2019-01-15T08:46:43.040Z,4.42
2019-01-15T08:50:49.534Z,4.53
2019-01-15T08:54:54.587Z,4.58
2019-01-15T08:58:59.610Z,4.62
2019-01-15T09:03:04.849Z,4.70
2019-01-15T09:07:09.992Z,4.75
2019-01-15T09:11:15.042Z,4.82
2019-01-15T09:15:20.262Z,4.92
2019-01-15T09:19:25.321Z,5.06
2019-01-15T09:23:30.378Z,5.10
2019-01-15T09:27:35.430Z,5.19
2019-01-15T09:31:40.750Z,5.19
2019-01-15T09:35:45.827Z,5.28
2019-01-15T09:39:50.839Z,5.40
2019-01-15T09:43:55.928Z,5.42
2019-01-15T09:48:04.940Z,5.53
2019-01-15T09:52:13.146Z,5.59
2019-01-15T09:56:16.790Z,5.64
2019-01-15T10:00:21.826Z,5.70
2019-01-15T10:04:26.916Z,5.81
2019-01-15T10:08:32.055Z,5.84
2019-01-15T10:12:37.159Z,5.93
2019-01-15T10:16:42.202Z,5.96
2019-01-15T10:20:47.229Z,5.96
2019-01-15T10:24:52.641Z,6.01
2019-01-15T10:28:57.685Z,5.98
2019-01-15T10:33:42.734Z,6.01
2019-01-15T10:37:47.814Z,6.08
2019-01-15T10:41:52.853Z,6.18
2019-01-15T10:45:58.850Z,6.30
2019-01-15T10:50:04.760Z,6.46
2019-01-15T10:54:09.832Z,6.47
2019-01-15T10:58:17.624Z,6.52
2019-01-15T11:02:21.653Z,6.49
2019-01-15T11:06:26.672Z,6.60
2019-01-15T11:10:31.716Z,6.62
2019-01-15T11:14:37.246Z,6.60
2019-01-15T11:18:42.289Z,6.67
2019-01-15T11:22:47.355Z,6.76
2019-01-15T11:26:52.369Z,6.80
2019-01-15T11:30:57.422Z,6.82
2019-01-15T11:35:02.476Z,6.90
2019-01-15T11:39:09.990Z,6.97
2019-01-15T11:43:15.058Z,6.91
2019-01-15T11:47:20.135Z,6.95
2019-01-15T11:51:25.439Z,6.84
2019-01-15T11:55:30.499Z,6.90
2019-01-15T11:59:35.527Z,6.85
2019-01-15T12:03:54.748Z,6.81
2019-01-15T12:08:18.835Z,6.83
2019-01-15T12:12:41.365Z,6.79
2019-01-15T12:17:03.755Z,6.74
2019-01-15T12:21:26.495Z,6.73
2019-01-15T12:25:42.090Z,6.75
2019-01-15T12:30:03.904Z,6.81
2019-01-15T12:34:30.895Z,6.82
2019-01-15T12:38:53.624Z,6.85
2019-01-15T12:43:16.115Z,6.83
2019-01-15T12:47:38.584Z,6.76
2019-01-15T12:51:51.704Z,6.85
2019-01-15T12:56:08.839Z,6.86
2019-01-15T13:00:32.035Z,6.78
2019-01-15T13:04:49.220Z,6.79
2019-01-15T13:09:22.248Z,6.76
2019-01-15T13:13:46.271Z,6.79
2019-01-15T13:18:09.520Z,6.82
2019-01-15T13:22:43.630Z,6.74
2019-01-15T13:27:13.818Z,6.73
2019-01-15T13:31:45.722Z,6.61
2019-01-15T13:36:05.938Z,6.59
2019-01-15T13:40:30.848Z,6.60
2019-01-15T13:44:53.662Z,6.54
2019-01-15T13:49:17.775Z,6.60
2019-01-15T13:53:38.108Z,6.54
2019-01-15T13:58:02.231Z,6.56
2019-01-15T14:02:29.302Z,6.46
2019-01-15T14:06:53.390Z,6.46
2019-01-15T14:11:16.095Z,6.47
2019-01-15T14:15:49.252Z,6.47
2019-01-15T14:20:10.346Z,6.42
2019-01-15T14:24:37.205Z,6.42
2019-01-15T14:29:05.423Z,6.31
2019-01-15T14:33:21.171Z,6.29
2019-01-15T14:37:48.149Z,6.25
2019-01-15T14:42:10.773Z,6.25
2019-01-15T14:46:35.322Z,6.27
2019-01-15T14:51:11.647Z,6.25
2019-01-15T14:55:34.551Z,6.27
2019-01-15T14:59:57.490Z,6.27
2019-01-15T15:04:30.613Z,6.29
2019-01-15T15:09:03.756Z,6.26
2019-01-15T15:13:32.165Z,6.24
2019-01-15T15:17:53.595Z,6.27
2019-01-15T15:22:23.925Z,6.27
2019-01-15T15:26:46.484Z,6.24
2019-01-15T15:31:09.205Z,6.23
2019-01-15T15:35:32.303Z,6.28
2019-01-15T15:39:54.988Z,6.28
2019-01-15T15:44:17.647Z,6.21
2019-01-15T15:48:44.799Z,6.20
2019-01-15T15:53:11.903Z,6.17
2019-01-15T15:57:36.063Z,6.19
2019-01-15T16:02:12.292Z,6.19
2019-01-15T16:06:42.577Z,6.19
2019-01-15T16:11:11.075Z,6.20
2019-01-15T16:15:28.183Z,6.14
2019-01-15T16:19:51.886Z,6.12
2019-01-15T16:24:10.351Z,6.11
2019-01-15T16:28:37.396Z,6.08
2019-01-15T16:33:04.271Z,6.08
2019-01-15T16:37:17.981Z,6.04
2019-01-15T16:41:46.093Z,6.09
2019-01-15T16:46:16.461Z,6.07
2019-01-15T16:50:52.323Z,6.10
2019-01-15T16:55:31.325Z,6.12
2019-01-15T17:00:08.817Z,6.15
2019-01-15T17:04:32.873Z,6.19
2019-01-15T17:09:05.996Z,6.17
2019-01-15T17:13:36.315Z,6.19
2019-01-15T17:17:52.966Z,6.18
2019-01-15T17:22:29.379Z,6.20
2019-01-15T17:27:02.495Z,6.18
2019-01-15T17:31:28.674Z,6.17
2019-01-15T17:35:51.628Z,6.12
2019-01-15T17:40:14.441Z,6.12
2019-01-15T17:44:38.146Z,6.13
2019-01-15T17:49:05.270Z,6.12
2019-01-15T17:53:28.104Z,6.15
2019-01-15T17:57:50.457Z,6.11
2019-01-15T18:02:11.518Z,6.10
2019-01-15T18:06:34.262Z,6.12
2019-01-15T18:10:56.977Z,6.16
2019-01-15T18:15:22.423Z,6.13
2019-01-15T18:19:46.551Z,6.16
2019-01-15T18:24:19.827Z,6.12
2019-01-15T18:28:32.601Z,6.12
2019-01-15T18:32:59.664Z,6.08
2019-01-15T18:37:14.151Z,6.10
2019-01-15T18:41:33.662Z,6.12
2019-01-15T18:46:06.631Z,6.11
2019-01-15T18:50:33.711Z,6.11
2019-01-15T18:55:06.737Z,6.11
2019-01-15T18:59:29.532Z,6.10
2019-01-15T19:03:53.839Z,6.07
2019-01-15T19:08:25.430Z,6.08
2019-01-15T19:12:50.332Z,6.08
2019-01-15T19:17:17.485Z,6.07
2019-01-15T19:21:41.574Z,6.17
2019-01-15T19:26:00.218Z,6.17
2019-01-15T19:30:19.350Z,6.13
2019-01-15T19:34:42.156Z,6.12
2019-01-15T19:39:05.291Z,6.08
2019-01-15T19:43:29.405Z,6.04
2019-01-15T19:48:11.221Z,6.03
2019-01-15T19:52:32.677Z,6.03
2019-01-15T19:56:57.182Z,6.10
2019-01-15T20:01:39.304Z,6.09
2019-01-15T20:06:06.223Z,6.09
2019-01-15T20:10:42.415Z,6.05
2019-01-15T20:15:05.020Z,6.05
2019-01-15T20:19:32.231Z,6.03
2019-01-15T20:23:54.861Z,6.03
2019-01-15T20:28:15.812Z,5.98
2019-01-15T20:32:45.681Z,6.09
2019-01-15T20:37:11.596Z,6.00
2019-01-15T20:41:35.139Z,6.12
2019-01-15T20:46:05.326Z,6.04
2019-01-15T20:50:38.892Z,6.06
2019-01-15T20:55:05.990Z,6.06
2019-01-15T20:59:28.408Z,6.01
2019-01-15T21:03:47.193Z,6.00
2019-01-15T21:07:59.866Z,6.00
2019-01-15T21:12:24.013Z,6.01
2019-01-15T21:16:48.095Z,6.01
2019-01-15T21:21:21.208Z,6.01
2019-01-15T21:25:47.468Z,5.98
2019-01-15T21:30:14.654Z,5.98
2019-01-15T21:34:37.256Z,5.99
2019-01-15T21:39:00.004Z,6.04
2019-01-15T21:43:18.018Z,6.00
2019-01-15T21:48:00.372Z,6.03
2019-01-15T21:52:23.338Z,6.01
2019-01-15T21:56:35.533Z,6.05
2019-01-15T22:00:58.239Z,6.05
2019-01-15T22:05:22.567Z,6.04
2019-01-15T22:09:45.339Z,6.06
2019-01-15T22:14:09.478Z,6.09
2019-01-15T22:18:42.648Z,6.07
2019-01-15T22:23:05.466Z,6.05
2019-01-15T22:27:22.364Z,6.08
2019-01-15T22:31:40.717Z,6.10
2019-01-15T22:36:12.351Z,6.07
2019-01-15T22:40:26.244Z,6.08
2019-01-15T22:44:39.142Z,6.03
2019-01-15T22:48:59.098Z,6.01
2019-01-15T22:53:21.645Z,6.04
2019-01-15T22:57:55.249Z,6.06
2019-01-15T23:02:16.855Z,6.02
2019-01-15T23:06:45.268Z,5.98
2019-01-15T23:11:02.671Z,5.96
2019-01-15T23:15:16.010Z,5.86
2019-01-15T23:19:37.551Z,5.79
2019-01-15T23:24:00.416Z,5.66
2019-01-15T23:28:17.930Z,5.53
2019-01-15T23:32:45.174Z,5.52
2019-01-15T23:36:59.751Z,5.42
2019-01-15T23:41:39.163Z,5.36
2019-01-15T23:46:15.414Z,5.43
2019-01-15T23:50:29.326Z,5.45
2019-01-15T23:55:05.544Z,5.44
2019-01-15T23:59:32.865Z,5.45
